South Kingstown, Rhode Island
Current Conditions -  °F | °C
As of 4:53 PM on Monday 20 Oct 2014 (Local Time) from KWST Reporting Station
Clear Clear  
Wind Chill: 55°   Ceiling: Unl
Heat Index: 55°   Visibility: 10mi
Dew Point: 39°   Wind: 10mph
Humidity: 55%   Direction: 230°SW
Pressure: 30.01"   Gusts: NA
Location:  41.497°N, 71.599°W
Report Text: KWST 202053Z AUTO 23009KT 10SM CLR 13/04 A3001 RMK AO2 SLP163 T01280039 58009
Loading
Personal Weather Stations






























Interactive Weather Map
Tropical Storm Tracking
New forecast layout! Learn more

10-Day Weather Forecast

Advertisements
Track Severe Weather on mobile